createdAt,value
2017-11-11T00:01:59.180Z,6.70
2017-11-11T00:04:27.693Z,6.70
2017-11-11T00:06:55.149Z,6.70
2017-11-11T00:09:22.859Z,6.70
2017-11-11T00:11:50.307Z,6.70
2017-11-11T00:14:18.061Z,6.70
2017-11-11T00:16:45.494Z,6.70
2017-11-11T00:19:13.179Z,6.70
2017-11-11T00:21:40.626Z,6.80
2017-11-11T00:24:09.088Z,6.80
2017-11-11T00:26:36.652Z,6.80
2017-11-11T00:29:04.086Z,6.70
2017-11-11T00:31:31.604Z,6.80
2017-11-11T00:33:59.438Z,6.70
2017-11-11T00:36:27.353Z,6.80
2017-11-11T00:38:55.110Z,6.70
2017-11-11T00:41:23.341Z,6.80
2017-11-11T00:43:51.230Z,6.80
2017-11-11T00:46:19.599Z,6.80
2017-11-11T00:51:22.952Z,6.80
2017-11-11T00:53:51.512Z,6.70
2017-11-11T00:56:18.941Z,6.70
2017-11-11T00:58:47.018Z,6.70
2017-11-11T01:01:15.497Z,6.70
2017-11-11T01:03:43.365Z,6.60
2017-11-11T01:06:10.870Z,6.60
2017-11-11T01:08:38.827Z,6.60
2017-11-11T01:11:07.021Z,6.60
2017-11-11T01:13:34.486Z,6.60
2017-11-11T01:16:01.927Z,6.60
2017-11-11T01:18:29.539Z,6.60
2017-11-11T01:20:57.070Z,6.50
2017-11-11T01:23:24.603Z,6.50
2017-11-11T01:25:53.035Z,6.50
2017-11-11T01:28:20.474Z,6.50
2017-11-11T01:30:47.912Z,6.50
2017-11-11T01:33:15.374Z,6.50
2017-11-11T01:35:44.423Z,6.50
2017-11-11T01:38:11.910Z,6.40
2017-11-11T01:40:40.298Z,6.40
2017-11-11T01:43:08.000Z,6.40
2017-11-11T01:45:35.441Z,6.40
2017-11-11T01:48:02.947Z,6.40
2017-11-11T01:50:31.477Z,6.40
2017-11-11T01:52:59.560Z,6.40
2017-11-11T01:55:26.986Z,6.50
2017-11-11T01:57:54.882Z,6.40
2017-11-11T02:00:22.326Z,6.40
2017-11-11T02:02:50.101Z,6.30
2017-11-11T02:05:18.067Z,6.30
2017-11-11T02:07:46.143Z,6.30
2017-11-11T02:10:13.582Z,6.30
2017-11-11T02:12:42.298Z,6.40
2017-11-11T02:15:09.728Z,6.40
2017-11-11T02:17:37.594Z,6.50
2017-11-11T02:20:05.036Z,6.50
2017-11-11T02:22:32.495Z,6.50
2017-11-11T02:25:00.019Z,6.50
2017-11-11T02:27:28.251Z,6.50
2017-11-11T02:29:55.711Z,6.50
2017-11-11T02:32:23.438Z,6.50
2017-11-11T02:34:50.897Z,6.50
2017-11-11T02:37:18.898Z,6.50
2017-11-11T02:39:46.333Z,6.50
2017-11-11T02:42:13.803Z,6.50
2017-11-11T02:44:41.682Z,6.50
2017-11-11T02:47:09.233Z,6.50
2017-11-11T02:49:38.486Z,6.50
2017-11-11T02:52:06.323Z,6.60
2017-11-11T02:54:34.170Z,6.60
2017-11-11T02:57:01.633Z,6.60
2017-11-11T02:59:29.276Z,6.60
2017-11-11T03:01:57.350Z,6.60
2017-11-11T03:04:25.123Z,6.50
2017-11-11T03:06:52.593Z,6.50
2017-11-11T03:09:21.042Z,6.50
2017-11-11T03:11:48.910Z,6.50
2017-11-11T03:14:16.358Z,6.40
2017-11-11T03:16:43.816Z,6.40
2017-11-11T03:19:11.333Z,6.40
2017-11-11T03:21:39.045Z,6.40
2017-11-11T03:24:06.507Z,6.40
2017-11-11T03:26:33.950Z,6.40
2017-11-11T03:29:01.406Z,6.40
2017-11-11T03:31:28.843Z,6.40
2017-11-11T03:33:56.311Z,6.40
2017-11-11T03:36:24.093Z,6.40
2017-11-11T03:38:51.569Z,6.50
2017-11-11T03:41:19.018Z,6.50
2017-11-11T03:43:47.382Z,6.50
2017-11-11T03:46:15.781Z,6.40
2017-11-11T03:48:44.543Z,6.40
2017-11-11T03:51:12.366Z,6.40
2017-11-11T03:53:41.001Z,6.30
2017-11-11T03:56:09.170Z,6.30
2017-11-11T03:58:37.025Z,6.30
2017-11-11T04:01:04.916Z,6.30
2017-11-11T04:03:32.659Z,6.30
2017-11-11T04:06:00.758Z,6.20
2017-11-11T04:08:29.820Z,6.20
2017-11-11T04:10:57.362Z,6.20
2017-11-11T04:13:24.819Z,6.20
2017-11-11T04:15:52.259Z,6.30
2017-11-11T04:18:19.852Z,6.30
2017-11-11T04:20:47.291Z,6.30
2017-11-11T04:23:14.763Z,6.30
2017-11-11T04:25:42.278Z,6.30
2017-11-11T04:28:10.561Z,6.40
2017-11-11T04:30:38.547Z,6.30
2017-11-11T04:33:06.279Z,6.40
2017-11-11T04:35:35.125Z,6.40
2017-11-11T04:38:02.606Z,6.40
2017-11-11T04:40:30.429Z,6.40
2017-11-11T04:42:58.224Z,6.40
2017-11-11T04:45:25.646Z,6.40
2017-11-11T04:47:53.182Z,6.50
2017-11-11T04:50:22.672Z,6.50
2017-11-11T04:52:50.899Z,6.60
2017-11-11T04:55:19.831Z,6.60
2017-11-11T04:57:47.779Z,6.70
2017-11-11T05:00:15.274Z,6.70
2017-11-11T05:02:43.829Z,6.60
2017-11-11T05:05:11.678Z,6.60
2017-11-11T05:07:39.514Z,6.60
2017-11-11T05:10:07.016Z,6.50
2017-11-11T05:12:34.862Z,6.50
2017-11-11T05:15:02.610Z,6.40
2017-11-11T05:17:30.051Z,6.40
2017-11-11T05:19:57.572Z,6.40
2017-11-11T05:22:25.993Z,6.30
2017-11-11T05:24:53.765Z,6.20
2017-11-11T05:27:21.219Z,6.30
2017-11-11T05:29:48.645Z,6.30
2017-11-11T05:32:16.257Z,6.40
2017-11-11T05:34:43.699Z,6.40
2017-11-11T05:37:11.441Z,6.40
2017-11-11T05:39:38.888Z,6.40
2017-11-11T05:42:06.631Z,6.40
2017-11-11T05:44:35.202Z,6.40
2017-11-11T05:47:02.934Z,6.40
2017-11-11T05:49:30.718Z,6.40
2017-11-11T05:51:59.490Z,6.40
2017-11-11T05:54:27.272Z,6.40
2017-11-11T05:56:54.705Z,6.40
2017-11-11T05:59:22.470Z,6.50
2017-11-11T06:01:50.741Z,6.50
2017-11-11T06:04:18.827Z,6.50
2017-11-11T06:06:46.656Z,6.40
2017-11-11T06:09:14.458Z,6.40
2017-11-11T06:11:41.899Z,6.50
2017-11-11T06:14:09.811Z,6.50
2017-11-11T06:16:38.039Z,6.50
2017-11-11T06:19:05.482Z,6.50
2017-11-11T06:21:33.877Z,6.50
2017-11-11T06:24:01.394Z,6.50
2017-11-11T06:26:28.834Z,6.50
2017-11-11T06:28:57.038Z,6.50
2017-11-11T06:31:24.590Z,6.40
2017-11-11T06:33:52.032Z,6.50
2017-11-11T06:36:20.366Z,6.40
2017-11-11T06:38:48.140Z,6.40
2017-11-11T06:41:15.607Z,6.40
2017-11-11T06:43:45.086Z,6.40
2017-11-11T06:46:12.609Z,6.40
2017-11-11T06:48:41.643Z,6.50
2017-11-11T06:51:09.290Z,6.50
2017-11-11T06:53:37.914Z,6.50
2017-11-11T06:56:05.335Z,6.50
2017-11-11T06:58:34.327Z,6.50
2017-11-11T07:01:02.219Z,6.60
2017-11-11T07:03:31.060Z,6.60
2017-11-11T07:05:58.956Z,6.60
2017-11-11T07:08:27.014Z,6.50
2017-11-11T07:10:54.472Z,6.50
2017-11-11T07:13:21.930Z,6.60
2017-11-11T07:15:49.806Z,6.60
2017-11-11T07:18:17.270Z,6.60
2017-11-11T07:20:44.714Z,6.70
2017-11-11T07:23:12.247Z,6.70
2017-11-11T07:25:39.869Z,6.70
2017-11-11T07:28:08.100Z,6.80
2017-11-11T07:30:36.122Z,6.70
2017-11-11T07:33:03.602Z,6.80
2017-11-11T07:35:31.603Z,6.80
2017-11-11T07:37:59.467Z,6.80
2017-11-11T07:40:26.948Z,6.80
2017-11-11T07:42:55.006Z,6.90
2017-11-11T07:45:22.437Z,6.90
2017-11-11T07:47:50.284Z,6.90
2017-11-11T07:50:18.085Z,6.90
2017-11-11T07:52:46.051Z,6.90
2017-11-11T07:55:14.019Z,6.80
2017-11-11T07:57:41.929Z,6.80
2017-11-11T08:00:09.379Z,6.80
2017-11-11T08:02:38.689Z,6.90
2017-11-11T08:05:06.498Z,6.80
2017-11-11T08:07:34.474Z,6.90
2017-11-11T08:10:01.919Z,6.90
2017-11-11T08:12:29.386Z,6.90
2017-11-11T08:14:56.866Z,6.90
2017-11-11T08:17:24.328Z,6.90
2017-11-11T08:19:53.413Z,6.90
2017-11-11T08:22:21.742Z,7.00
2017-11-11T08:24:49.195Z,6.90
2017-11-11T08:27:16.941Z,7.00
2017-11-11T08:29:44.383Z,7.00
2017-11-11T08:32:12.635Z,7.10
2017-11-11T08:34:40.066Z,7.00
2017-11-11T08:37:07.939Z,7.10
2017-11-11T08:39:35.439Z,7.20
2017-11-11T08:42:04.079Z,7.20
2017-11-11T08:44:32.009Z,7.20
2017-11-11T08:46:59.745Z,7.20
2017-11-11T08:49:28.189Z,7.20
2017-11-11T08:51:56.874Z,7.20
2017-11-11T08:54:24.743Z,7.30
2017-11-11T08:56:52.205Z,7.30
2017-11-11T08:59:20.063Z,7.30
2017-11-11T09:01:48.454Z,7.30
2017-11-11T09:04:16.118Z,7.30
2017-11-11T09:06:43.943Z,7.30
2017-11-11T09:09:11.943Z,7.30
2017-11-11T09:11:39.467Z,7.30
2017-11-11T09:14:07.328Z,7.30
2017-11-11T09:16:35.764Z,7.30
2017-11-11T09:19:03.206Z,7.40
2017-11-11T09:21:31.861Z,7.30
2017-11-11T09:23:59.412Z,7.30
2017-11-11T09:26:27.074Z,7.40
2017-11-11T09:28:54.528Z,7.30
2017-11-11T09:31:22.122Z,7.30
2017-11-11T09:33:49.566Z,7.40
2017-11-11T09:36:17.696Z,7.40
2017-11-11T09:38:45.810Z,7.40
2017-11-11T09:41:13.272Z,7.40
2017-11-11T09:43:41.212Z,7.40
2017-11-11T09:46:08.655Z,7.30
2017-11-11T09:48:37.183Z,7.30
2017-11-11T09:51:04.811Z,7.30
2017-11-11T09:53:33.947Z,7.30
2017-11-11T09:56:01.685Z,7.30
2017-11-11T09:58:29.366Z,7.30
2017-11-11T10:00:57.070Z,7.30
2017-11-11T10:03:27.049Z,7.30
2017-11-11T10:05:56.652Z,7.30
2017-11-11T10:08:24.519Z,7.30
2017-11-11T10:10:51.963Z,7.30
2017-11-11T10:13:19.432Z,7.30
2017-11-11T10:15:46.897Z,7.30
2017-11-11T10:18:15.574Z,7.30
2017-11-11T10:20:43.030Z,7.30
2017-11-11T10:23:10.565Z,7.30
2017-11-11T10:25:38.550Z,7.30
2017-11-11T10:28:06.410Z,7.30
2017-11-11T10:30:34.465Z,7.30
2017-11-11T10:33:01.934Z,7.30
2017-11-11T10:35:29.601Z,7.30
2017-11-11T10:37:57.698Z,7.30
2017-11-11T10:40:25.130Z,7.30
2017-11-11T10:42:53.197Z,7.40
2017-11-11T10:45:20.669Z,7.40
2017-11-11T10:47:49.109Z,7.40
2017-11-11T10:50:17.340Z,7.30
2017-11-11T10:52:46.070Z,7.30
2017-11-11T10:55:13.886Z,7.30
2017-11-11T10:57:42.519Z,7.40
2017-11-11T11:00:10.078Z,7.30
2017-11-11T11:02:38.186Z,7.40
2017-11-11T11:05:06.937Z,7.40
2017-11-11T11:07:35.647Z,7.50
2017-11-11T11:10:03.534Z,7.50
2017-11-11T11:12:31.044Z,7.50
2017-11-11T11:14:58.523Z,7.60
2017-11-11T11:17:26.315Z,7.60
2017-11-11T11:19:53.824Z,7.60
2017-11-11T11:22:21.325Z,7.70
2017-11-11T11:24:48.769Z,7.60
2017-11-11T11:27:16.535Z,7.70
2017-11-11T11:29:43.971Z,7.60
2017-11-11T11:32:11.699Z,7.70
2017-11-11T11:34:39.904Z,7.70
2017-11-11T11:37:08.008Z,7.70
2017-11-11T11:39:35.465Z,7.70
2017-11-11T11:42:02.949Z,7.80
2017-11-11T11:44:31.540Z,7.80
2017-11-11T11:46:58.988Z,7.80
2017-11-11T11:49:27.548Z,7.80
2017-11-11T11:51:55.020Z,7.80
2017-11-11T11:54:24.645Z,7.90
2017-11-11T11:56:52.085Z,7.90
2017-11-11T11:59:21.142Z,7.90
2017-11-11T12:01:48.818Z,7.90
2017-11-11T12:04:18.097Z,7.90
2017-11-11T12:06:45.790Z,7.90
2017-11-11T12:09:13.655Z,7.90
2017-11-11T12:11:41.117Z,7.90
2017-11-11T12:14:09.970Z,8.00
2017-11-11T12:16:37.549Z,7.90
2017-11-11T12:19:04.984Z,7.90
2017-11-11T12:21:32.655Z,8.00
2017-11-11T12:24:00.095Z,8.00
2017-11-11T12:26:27.671Z,8.00
2017-11-11T12:28:55.205Z,8.00
2017-11-11T12:31:22.812Z,8.00
2017-11-11T12:33:50.685Z,8.00
2017-11-11T12:36:18.972Z,8.10
2017-11-11T12:38:47.719Z,8.20
2017-11-11T12:41:15.177Z,8.20
2017-11-11T12:43:42.961Z,8.20
2017-11-11T12:46:10.436Z,8.30
2017-11-11T12:48:40.069Z,8.30
2017-11-11T12:51:07.527Z,8.20
2017-11-11T12:53:35.330Z,8.20
2017-11-11T12:56:03.276Z,8.20
2017-11-11T12:58:31.274Z,8.20
2017-11-11T13:00:59.192Z,8.20
2017-11-11T13:03:27.328Z,8.20
2017-11-11T13:05:56.524Z,8.20
2017-11-11T13:08:24.698Z,8.20
2017-11-11T13:10:52.212Z,8.20
2017-11-11T13:13:19.656Z,8.20
2017-11-11T13:15:47.110Z,8.20
2017-11-11T13:18:14.565Z,8.30
2017-11-11T13:20:42.131Z,8.30
2017-11-11T13:23:09.593Z,8.30
2017-11-11T13:25:37.491Z,8.30
2017-11-11T13:28:04.943Z,8.30
2017-11-11T13:30:32.411Z,8.30
2017-11-11T13:32:59.864Z,8.40
2017-11-11T13:35:28.838Z,8.40
2017-11-11T13:37:56.768Z,8.40
2017-11-11T13:40:24.212Z,8.40
2017-11-11T13:42:52.144Z,8.40
2017-11-11T13:45:19.617Z,8.40
2017-11-11T13:47:48.370Z,8.40
2017-11-11T13:50:17.770Z,8.40
2017-11-11T13:52:45.213Z,8.40
2017-11-11T13:55:14.135Z,8.40
2017-11-11T13:57:43.125Z,8.40
2017-11-11T14:00:10.565Z,8.40
2017-11-11T14:02:38.350Z,8.30
2017-11-11T14:05:06.104Z,8.40
2017-11-11T14:07:34.180Z,8.30
2017-11-11T14:10:01.695Z,8.30
2017-11-11T14:12:29.153Z,8.30
2017-11-11T14:14:56.711Z,8.30
2017-11-11T14:17:24.170Z,8.20
2017-11-11T14:19:51.737Z,8.20
2017-11-11T14:22:20.820Z,8.20
2017-11-11T14:24:49.000Z,8.20
2017-11-11T14:27:17.424Z,8.20
2017-11-11T14:29:45.037Z,8.20
2017-11-11T14:32:12.887Z,8.10
2017-11-11T14:34:40.327Z,8.10
2017-11-11T14:37:08.539Z,8.10
2017-11-11T14:39:36.350Z,8.10
2017-11-11T14:42:03.817Z,8.10
2017-11-11T14:44:32.357Z,8.10
2017-11-11T14:46:59.818Z,8.10
2017-11-11T14:49:28.472Z,8.10
2017-11-11T14:51:55.905Z,8.10
2017-11-11T14:54:24.442Z,8.10
2017-11-11T14:56:52.219Z,8.10
2017-11-11T14:59:20.112Z,8.10
2017-11-11T15:01:48.934Z,8.00
2017-11-11T15:04:17.570Z,8.00
2017-11-11T15:06:45.792Z,8.00
2017-11-11T15:09:13.616Z,8.00
2017-11-11T15:11:41.418Z,8.10
2017-11-11T15:14:08.911Z,8.10
2017-11-11T15:16:36.431Z,8.10
2017-11-11T15:19:04.017Z,8.10
2017-11-11T15:21:31.487Z,8.10
2017-11-11T15:23:58.975Z,8.10
2017-11-11T15:26:27.493Z,8.20
2017-11-11T15:28:55.972Z,8.20
2017-11-11T15:31:23.437Z,8.20
2017-11-11T15:33:51.438Z,8.10
2017-11-11T15:36:18.951Z,8.10
2017-11-11T15:38:46.917Z,8.10
2017-11-11T15:41:14.431Z,8.10
2017-11-11T15:43:42.225Z,8.10
2017-11-11T15:46:09.903Z,8.20
2017-11-11T15:48:38.207Z,8.30
2017-11-11T15:51:06.137Z,8.50
2017-11-11T15:53:34.158Z,8.60
2017-11-11T15:56:02.020Z,8.60
2017-11-11T15:58:31.725Z,8.50
2017-11-11T16:01:01.633Z,8.50
2017-11-11T16:03:29.595Z,8.40
2017-11-11T16:05:57.541Z,8.30
2017-11-11T16:08:25.544Z,8.20
2017-11-11T16:10:53.043Z,8.20
2017-11-11T16:13:21.718Z,8.00
2017-11-11T16:15:49.950Z,8.00
2017-11-11T16:18:17.398Z,7.90
2017-11-11T16:20:45.694Z,7.90
2017-11-11T16:23:13.119Z,7.90
2017-11-11T16:25:40.782Z,7.80
2017-11-11T16:28:08.474Z,7.80
2017-11-11T16:30:35.949Z,7.80
2017-11-11T16:33:03.386Z,7.80
2017-11-11T16:35:30.857Z,7.70
2017-11-11T16:37:58.304Z,7.70
2017-11-11T16:40:26.262Z,7.60
2017-11-11T16:42:54.240Z,7.60
2017-11-11T16:45:21.676Z,7.60
2017-11-11T16:47:49.255Z,7.60
2017-11-11T16:50:17.108Z,7.50
2017-11-11T16:52:44.593Z,7.50
2017-11-11T16:55:12.775Z,7.50
2017-11-11T16:57:41.600Z,7.50
2017-11-11T17:00:09.058Z,7.50
2017-11-11T17:02:36.741Z,7.50
2017-11-11T17:05:04.751Z,7.50
2017-11-11T17:07:33.735Z,7.40
2017-11-11T17:10:01.695Z,7.40
2017-11-11T17:12:29.133Z,7.30
2017-11-11T17:14:56.693Z,7.40
2017-11-11T17:17:24.130Z,7.40
2017-11-11T17:19:51.601Z,7.40
2017-11-11T17:22:19.133Z,7.40
2017-11-11T17:24:46.618Z,7.40
2017-11-11T17:27:14.306Z,7.40
2017-11-11T17:29:41.775Z,7.40
2017-11-11T17:32:10.139Z,7.40
2017-11-11T17:34:37.595Z,7.30
2017-11-11T17:37:05.406Z,7.30
2017-11-11T17:39:33.260Z,7.30
2017-11-11T17:42:00.831Z,7.20
2017-11-11T17:44:28.598Z,7.20
2017-11-11T17:46:56.031Z,7.20
2017-11-11T17:49:24.585Z,7.20
2017-11-11T17:51:52.057Z,7.20
2017-11-11T17:54:20.279Z,7.20
2017-11-11T17:56:47.983Z,7.20
2017-11-11T17:59:16.883Z,7.10
2017-11-11T18:01:45.632Z,7.10
2017-11-11T18:04:14.097Z,7.10
2017-11-11T18:06:41.642Z,7.10
2017-11-11T18:09:10.574Z,7.10
2017-11-11T18:11:38.023Z,7.10
2017-11-11T18:14:05.675Z,7.10
2017-11-11T18:16:33.209Z,7.10
2017-11-11T18:19:00.792Z,7.00
2017-11-11T18:21:28.256Z,7.00
2017-11-11T18:23:55.789Z,6.90
2017-11-11T18:26:23.342Z,6.90
2017-11-11T18:28:50.868Z,6.90
2017-11-11T18:31:19.522Z,6.90
2017-11-11T18:33:47.009Z,6.80
2017-11-11T18:36:15.230Z,6.90
2017-11-11T18:38:42.708Z,6.80
2017-11-11T18:41:11.287Z,6.90
2017-11-11T18:43:39.051Z,6.80
2017-11-11T18:46:06.498Z,6.90
2017-11-11T18:48:35.976Z,6.90
2017-11-11T18:51:03.545Z,6.90
2017-11-11T18:53:30.991Z,6.80
2017-11-11T18:55:59.063Z,6.80
2017-11-11T18:58:26.768Z,6.80
2017-11-11T19:00:54.711Z,6.80
2017-11-11T19:03:23.370Z,6.80
2017-11-11T19:05:50.839Z,6.80
2017-11-11T19:08:19.626Z,6.90
2017-11-11T19:10:47.077Z,6.90
2017-11-11T19:13:14.642Z,6.90
2017-11-11T19:15:42.200Z,6.90
2017-11-11T19:18:09.758Z,6.90
2017-11-11T19:20:37.213Z,6.80
2017-11-11T19:23:05.178Z,6.80
2017-11-11T19:25:33.085Z,6.90
2017-11-11T19:28:01.017Z,6.90
2017-11-11T19:30:28.490Z,6.90
2017-11-11T19:32:56.047Z,6.90
2017-11-11T19:35:23.849Z,6.90
2017-11-11T19:37:52.942Z,6.90
2017-11-11T19:40:20.739Z,6.90
2017-11-11T19:42:48.860Z,6.90
2017-11-11T19:45:16.360Z,6.90
2017-11-11T19:47:43.841Z,6.90
2017-11-11T19:50:11.779Z,6.80
2017-11-11T19:52:39.983Z,6.80
2017-11-11T19:55:07.689Z,6.70
2017-11-11T19:57:35.738Z,6.80
2017-11-11T20:00:03.349Z,6.80
2017-11-11T20:02:31.986Z,6.80
2017-11-11T20:04:59.721Z,6.80
2017-11-11T20:07:28.570Z,6.80
2017-11-11T20:09:56.030Z,6.80
2017-11-11T20:12:24.342Z,6.90
2017-11-11T20:14:52.211Z,6.90
2017-11-11T20:17:19.638Z,6.90
2017-11-11T20:19:48.042Z,7.00
2017-11-11T20:22:15.513Z,6.90
2017-11-11T20:24:44.216Z,6.90
2017-11-11T20:27:11.745Z,6.90
2017-11-11T20:29:39.208Z,6.90
2017-11-11T20:32:06.696Z,6.90
2017-11-11T20:34:34.171Z,6.90
2017-11-11T20:37:01.621Z,6.90
2017-11-11T20:39:30.766Z,6.90
2017-11-11T20:41:58.245Z,6.90
2017-11-11T20:44:25.893Z,6.90
2017-11-11T20:46:53.348Z,6.90
2017-11-11T20:49:21.665Z,6.80
2017-11-11T20:51:49.094Z,6.80
2017-11-11T20:54:16.683Z,6.80
2017-11-11T20:56:46.185Z,6.80
2017-11-11T20:59:14.821Z,6.80
2017-11-11T21:01:42.726Z,6.80
2017-11-11T21:04:11.279Z,6.80
2017-11-11T21:06:38.726Z,6.80
2017-11-11T21:09:06.626Z,6.80
2017-11-11T21:11:34.119Z,6.70
2017-11-11T21:14:01.951Z,6.70
2017-11-11T21:16:29.386Z,6.70
2017-11-11T21:18:56.826Z,6.70
2017-11-11T21:21:24.648Z,6.70
2017-11-11T21:23:52.854Z,6.70
2017-11-11T21:26:20.379Z,6.60
2017-11-11T21:28:48.598Z,6.60
2017-11-11T21:31:16.078Z,6.60
2017-11-11T21:33:43.523Z,6.60
2017-11-11T21:36:11.040Z,6.60
2017-11-11T21:38:39.447Z,6.60
2017-11-11T21:41:07.415Z,6.50
2017-11-11T21:43:35.282Z,6.60
2017-11-11T21:46:02.732Z,6.50
2017-11-11T21:48:31.046Z,6.50
2017-11-11T21:50:58.476Z,6.50
2017-11-11T21:53:26.124Z,6.50
2017-11-11T21:55:55.768Z,6.50
2017-11-11T21:58:23.806Z,6.40
2017-11-11T22:00:52.492Z,6.40
2017-11-11T22:03:21.635Z,6.40
2017-11-11T22:05:49.154Z,6.40
2017-11-11T22:08:17.834Z,6.40
2017-11-11T22:10:45.289Z,6.40
2017-11-11T22:13:12.744Z,6.30
2017-11-11T22:15:40.212Z,6.30
2017-11-11T22:18:08.413Z,6.30
2017-11-11T22:20:36.363Z,6.30
2017-11-11T22:23:03.822Z,6.30
2017-11-11T22:25:31.514Z,6.30
2017-11-11T22:27:58.970Z,6.20
2017-11-11T22:30:26.473Z,6.20
2017-11-11T22:32:53.927Z,6.20
2017-11-11T22:35:21.371Z,6.20
2017-11-11T22:37:49.045Z,6.20
2017-11-11T22:40:17.274Z,6.20
2017-11-11T22:42:45.219Z,6.20
2017-11-11T22:45:12.671Z,6.20
2017-11-11T22:47:40.107Z,6.20
2017-11-11T22:50:08.919Z,6.20
2017-11-11T22:52:36.789Z,6.20
2017-11-11T22:55:04.317Z,6.20
2017-11-11T22:57:32.115Z,6.10
2017-11-11T22:59:59.577Z,6.20
2017-11-11T23:02:27.375Z,6.20
2017-11-11T23:04:55.922Z,6.20
2017-11-11T23:07:24.095Z,6.20
2017-11-11T23:09:51.614Z,6.20
2017-11-11T23:12:19.175Z,6.20
2017-11-11T23:14:46.623Z,6.10
2017-11-11T23:17:14.067Z,6.10
2017-11-11T23:19:41.645Z,6.10
2017-11-11T23:22:09.079Z,6.10
2017-11-11T23:24:36.689Z,6.20
2017-11-11T23:27:04.192Z,6.20
2017-11-11T23:29:32.493Z,6.20
2017-11-11T23:31:59.949Z,6.20
2017-11-11T23:34:27.508Z,6.20
2017-11-11T23:36:55.066Z,6.10
2017-11-11T23:39:22.508Z,6.10
2017-11-11T23:41:50.316Z,6.10
2017-11-11T23:44:17.956Z,6.10
2017-11-11T23:46:45.429Z,6.10
2017-11-11T23:49:13.271Z,6.10
2017-11-11T23:51:41.689Z,6.10
2017-11-11T23:54:09.139Z,6.10
2017-11-11T23:56:37.510Z,6.10
2017-11-11T23:59:05.380Z,6.00
